createdAt,value
2018-09-09T00:00:55.083Z,7.00
2018-09-09T00:03:24.797Z,9.37
2018-09-09T00:05:55.418Z,5.90
2018-09-09T00:08:26.438Z,9.97
2018-09-09T00:10:56.527Z,6.77
2018-09-09T00:13:26.283Z,8.30
2018-09-09T00:15:56.225Z,7.17
2018-09-09T00:18:26.491Z,8.23
2018-09-09T00:20:56.620Z,8.37
2018-09-09T00:23:26.908Z,7.40
2018-09-09T00:25:58.090Z,7.97
2018-09-09T00:28:28.464Z,9.57
2018-09-09T00:30:58.665Z,9.53
2018-09-09T00:33:29.485Z,8.33
2018-09-09T00:35:59.681Z,7.33
2018-09-09T00:38:29.533Z,11.17
2018-09-09T00:41:00.075Z,8.07
2018-09-09T00:43:30.688Z,8.37
2018-09-09T00:46:01.513Z,10.00
2018-09-09T00:48:30.722Z,8.17
2018-09-09T00:51:04.854Z,7.37
2018-09-09T00:53:39.506Z,7.07
2018-09-09T00:56:10.502Z,13.40
2018-09-09T00:58:40.022Z,11.10
2018-09-09T01:01:15.222Z,8.53
2018-09-09T01:03:45.778Z,10.57
2018-09-09T01:06:15.621Z,9.57
2018-09-09T01:08:45.646Z,9.83
2018-09-09T01:11:15.327Z,7.97
2018-09-09T01:13:45.898Z,10.13
2018-09-09T01:16:16.459Z,8.60
2018-09-09T01:18:47.370Z,10.30
2018-09-09T01:21:17.783Z,13.23
2018-09-09T01:23:47.550Z,12.13
2018-09-09T01:26:18.103Z,13.10
2018-09-09T01:28:48.829Z,10.70
2018-09-09T01:31:19.182Z,12.67
2018-09-09T01:33:50.530Z,9.37
2018-09-09T01:36:21.326Z,11.97
2018-09-09T01:38:52.578Z,9.37
2018-09-09T01:41:22.660Z,9.13
2018-09-09T01:43:52.862Z,9.73
2018-09-09T01:46:23.310Z,9.77
2018-09-09T01:48:53.389Z,11.77
2018-09-09T01:51:23.619Z,10.57
2018-09-09T01:53:55.490Z,12.80
2018-09-09T01:56:25.720Z,10.47
2018-09-09T01:58:56.774Z,10.00
2018-09-09T02:01:28.199Z,9.33
2018-09-09T02:03:59.090Z,9.63
2018-09-09T02:06:30.477Z,11.70
2018-09-09T02:08:59.299Z,11.00
2018-09-09T02:11:29.607Z,13.63
2018-09-09T02:14:00.263Z,24.33
2018-09-09T02:16:30.494Z,28.23
2018-09-09T02:19:01.068Z,27.57
2018-09-09T02:21:32.294Z,86.70
2018-09-09T02:24:02.690Z,68.07
2018-09-09T02:26:32.576Z,40.20
2018-09-09T02:29:04.158Z,19.13
2018-09-09T02:31:34.221Z,14.03
2018-09-09T02:34:03.359Z,17.13
2018-09-09T02:36:33.911Z,12.47
2018-09-09T02:39:04.255Z,11.47
2018-09-09T02:41:34.550Z,10.27
2018-09-09T02:44:06.162Z,10.17
2018-09-09T02:46:36.070Z,11.27
2018-09-09T02:49:06.284Z,8.73
2018-09-09T02:51:37.050Z,11.03
2018-09-09T02:54:07.143Z,9.13
2018-09-09T02:56:37.443Z,8.67
2018-09-09T02:59:07.682Z,11.17
2018-09-09T03:01:37.598Z,9.00
2018-09-09T03:04:08.647Z,11.47
2018-09-09T03:06:39.914Z,8.37
2018-09-09T03:09:09.667Z,9.00
2018-09-09T03:11:41.366Z,11.30
2018-09-09T03:14:10.498Z,11.97
2018-09-09T03:16:40.102Z,10.57
2018-09-09T03:19:09.698Z,11.53
2018-09-09T03:21:40.201Z,10.73
2018-09-09T03:24:09.942Z,12.57
2018-09-09T03:26:40.346Z,10.37
2018-09-09T03:29:09.441Z,10.03
2018-09-09T03:31:39.430Z,7.90
2018-09-09T03:34:09.422Z,11.97
2018-09-09T03:36:39.167Z,9.93
2018-09-09T03:39:11.263Z,6.93
2018-09-09T03:41:40.202Z,11.53
2018-09-09T03:44:09.491Z,11.13
2018-09-09T03:46:39.571Z,10.40
2018-09-09T03:49:10.427Z,11.53
2018-09-09T03:51:41.774Z,10.50
2018-09-09T03:54:12.411Z,12.03
2018-09-09T03:56:42.822Z,8.43
2018-09-09T03:59:12.491Z,13.90
2018-09-09T04:01:42.083Z,10.17
2018-09-09T04:04:12.311Z,12.87
2018-09-09T04:06:43.268Z,13.90
2018-09-09T04:09:14.174Z,13.83
2018-09-09T04:11:44.175Z,11.13
2018-09-09T04:14:14.502Z,11.03
2018-09-09T04:16:44.670Z,12.43
2018-09-09T04:19:15.159Z,7.70
2018-09-09T04:21:51.328Z,8.63
2018-09-09T04:24:23.046Z,10.53
2018-09-09T04:26:52.694Z,11.63
2018-09-09T04:29:22.979Z,11.20
2018-09-09T04:31:53.267Z,9.40
2018-09-09T04:34:23.243Z,10.90
2018-09-09T04:36:52.619Z,10.73
2018-09-09T04:39:23.487Z,12.83
2018-09-09T04:41:53.408Z,10.90
2018-09-09T04:44:23.560Z,11.27
2018-09-09T04:46:55.722Z,11.73
2018-09-09T04:49:27.339Z,10.10
2018-09-09T04:51:57.558Z,9.77
2018-09-09T04:54:28.289Z,10.73
2018-09-09T04:57:03.175Z,11.03
2018-09-09T04:59:34.031Z,10.00
2018-09-09T05:02:03.954Z,9.07
2018-09-09T05:04:34.100Z,8.00
2018-09-09T05:07:05.235Z,10.00
2018-09-09T05:09:35.693Z,10.43
2018-09-09T05:12:04.993Z,10.87
2018-09-09T05:14:36.090Z,8.83
2018-09-09T05:17:06.048Z,10.00
2018-09-09T05:19:36.697Z,6.63
2018-09-09T05:22:06.927Z,8.30
2018-09-09T05:24:37.127Z,8.37
2018-09-09T05:27:06.801Z,9.47
2018-09-09T05:29:37.335Z,9.13
2018-09-09T05:32:07.275Z,9.10
2018-09-09T05:34:40.462Z,8.77
2018-09-09T05:37:10.394Z,7.90
2018-09-09T05:39:49.710Z,10.13
2018-09-09T05:42:20.084Z,6.23
2018-09-09T05:44:50.648Z,10.67
2018-09-09T05:47:20.666Z,7.67
2018-09-09T05:49:50.156Z,10.00
2018-09-09T05:52:20.339Z,11.50
2018-09-09T05:54:50.310Z,10.97
2018-09-09T05:57:20.643Z,8.83
2018-09-09T05:59:50.974Z,8.33
2018-09-09T06:02:19.943Z,8.33
2018-09-09T06:04:50.179Z,9.70
2018-09-09T06:07:20.539Z,10.50
2018-09-09T06:09:49.957Z,11.60
2018-09-09T06:12:18.867Z,6.87
2018-09-09T06:14:48.063Z,10.73
2018-09-09T06:17:18.331Z,11.37
2018-09-09T06:19:48.375Z,12.77
2018-09-09T06:22:20.347Z,9.93
2018-09-09T06:24:51.730Z,9.60
2018-09-09T06:27:21.623Z,12.20
2018-09-09T06:29:52.811Z,9.57
2018-09-09T06:32:22.662Z,9.80
2018-09-09T06:34:53.278Z,6.60
2018-09-09T06:37:24.220Z,10.80
2018-09-09T06:39:54.523Z,10.03
2018-09-09T06:42:25.123Z,11.20
2018-09-09T06:44:55.124Z,12.00
2018-09-09T06:47:25.622Z,9.10
2018-09-09T06:49:56.170Z,9.80
2018-09-09T06:52:26.162Z,9.63
2018-09-09T06:54:55.841Z,10.43
2018-09-09T06:57:25.691Z,9.87
2018-09-09T06:59:56.086Z,11.63
2018-09-09T07:02:27.715Z,9.57
2018-09-09T07:04:58.986Z,10.70
2018-09-09T07:07:29.874Z,11.97
2018-09-09T07:12:27.499Z,11.50
2018-09-09T07:14:56.679Z,9.57
2018-09-09T07:17:27.522Z,9.97
2018-09-09T07:19:57.867Z,12.40
2018-09-09T07:22:28.344Z,10.87
2018-09-09T07:24:58.587Z,11.30
2018-09-09T07:27:28.575Z,8.93
2018-09-09T07:29:59.261Z,10.73
2018-09-09T07:32:28.760Z,8.77
2018-09-09T07:34:59.484Z,9.27
2018-09-09T07:37:29.263Z,10.63
2018-09-09T07:39:58.521Z,10.67
2018-09-09T07:42:28.712Z,8.40
2018-09-09T07:44:59.459Z,9.90
2018-09-09T07:47:30.128Z,15.63
2018-09-09T07:49:59.691Z,10.03
2018-09-09T07:52:29.451Z,11.67
2018-09-09T07:54:58.621Z,11.50
2018-09-09T07:57:28.503Z,11.03
2018-09-09T07:59:57.698Z,11.20
2018-09-09T08:02:27.572Z,13.43
2018-09-09T08:04:57.455Z,9.57
2018-09-09T08:07:27.274Z,7.77
2018-09-09T08:09:56.587Z,8.93
2018-09-09T08:12:26.586Z,9.03
2018-09-09T08:14:57.591Z,8.93
2018-09-09T08:17:28.187Z,11.03
2018-09-09T08:19:58.202Z,10.03
2018-09-09T08:22:27.893Z,9.63
2018-09-09T08:24:57.507Z,8.83
2018-09-09T08:27:27.451Z,12.10
2018-09-09T08:29:58.063Z,9.47
2018-09-09T08:32:27.886Z,11.13
2018-09-09T08:34:57.042Z,11.20
2018-09-09T08:37:27.403Z,7.93
2018-09-09T08:39:57.610Z,13.43
2018-09-09T08:42:27.576Z,8.57
2018-09-09T08:44:56.813Z,9.13
2018-09-09T08:47:27.446Z,14.63
2018-09-09T08:49:57.854Z,12.00
2018-09-09T08:52:27.540Z,10.40
2018-09-09T08:54:59.493Z,8.63
2018-09-09T08:57:30.428Z,10.70
2018-09-09T09:00:00.177Z,12.77
2018-09-09T09:02:29.352Z,12.30
2018-09-09T09:04:59.603Z,8.50
2018-09-09T09:07:29.286Z,7.97
2018-09-09T09:09:59.087Z,15.87
2018-09-09T09:12:28.592Z,13.87
2018-09-09T09:14:58.789Z,12.00
2018-09-09T09:17:28.570Z,8.57
2018-09-09T09:19:58.033Z,13.37
2018-09-09T09:22:28.319Z,12.67
2018-09-09T09:24:58.427Z,12.63
2018-09-09T09:27:28.294Z,10.10
2018-09-09T09:29:59.807Z,10.33
2018-09-09T09:32:30.050Z,10.63
2018-09-09T09:34:59.890Z,9.27
2018-09-09T09:37:30.734Z,13.50
2018-09-09T09:40:01.187Z,10.03
2018-09-09T09:42:31.581Z,11.03
2018-09-09T09:45:03.227Z,9.17
2018-09-09T09:47:33.124Z,8.97
2018-09-09T09:50:02.667Z,8.70
2018-09-09T09:52:32.215Z,7.53
2018-09-09T09:55:02.324Z,5.13
2018-09-09T09:57:32.083Z,8.30
2018-09-09T10:00:02.058Z,6.60
2018-09-09T10:02:33.424Z,8.33
2018-09-09T10:05:03.144Z,10.97
2018-09-09T10:07:33.531Z,8.90
2018-09-09T10:10:04.778Z,5.40
2018-09-09T10:12:34.387Z,9.00
2018-09-09T10:15:05.318Z,10.63
2018-09-09T10:17:35.422Z,8.93
2018-09-09T10:20:05.591Z,9.10
2018-09-09T10:22:36.127Z,9.30
2018-09-09T10:25:07.459Z,6.07
2018-09-09T10:27:36.618Z,5.53
2018-09-09T10:30:08.098Z,6.73
2018-09-09T10:32:38.822Z,5.97
2018-09-09T10:35:09.469Z,8.23
2018-09-09T10:37:40.063Z,7.13
2018-09-09T10:40:10.393Z,10.57
2018-09-09T10:42:39.518Z,7.50
2018-09-09T10:45:11.203Z,6.40
2018-09-09T10:47:42.415Z,6.30
2018-09-09T10:50:12.474Z,5.37
2018-09-09T10:52:41.579Z,7.90
2018-09-09T10:55:12.235Z,6.47
2018-09-09T10:57:42.500Z,8.00
2018-09-09T11:00:12.875Z,9.20
2018-09-09T11:02:44.918Z,7.70
2018-09-09T11:05:14.507Z,8.87
2018-09-09T11:07:45.549Z,7.30
2018-09-09T11:10:15.237Z,8.53
2018-09-09T11:12:44.927Z,7.03
2018-09-09T11:15:14.223Z,5.90
2018-09-09T11:17:45.166Z,5.17
2018-09-09T11:20:16.047Z,5.43
2018-09-09T11:22:45.479Z,7.37
2018-09-09T11:25:15.815Z,7.83
2018-09-09T11:27:46.114Z,6.67
2018-09-09T11:30:15.771Z,8.17
2018-09-09T11:32:46.239Z,4.93
2018-09-09T11:35:17.854Z,5.93
2018-09-09T11:37:49.259Z,5.00
2018-09-09T11:40:19.022Z,4.10
2018-09-09T11:42:49.073Z,6.07
2018-09-09T11:45:20.280Z,4.67
2018-09-09T11:47:57.490Z,6.13
2018-09-09T11:50:28.926Z,5.70
2018-09-09T11:52:59.993Z,5.90
2018-09-09T11:55:30.074Z,5.40
2018-09-09T11:58:01.214Z,3.00
2018-09-09T12:00:31.056Z,5.97
2018-09-09T12:03:02.186Z,5.73
2018-09-09T12:05:33.131Z,4.67
2018-09-09T12:08:03.162Z,4.67
2018-09-09T12:10:33.755Z,5.40
2018-09-09T12:13:04.214Z,5.13
2018-09-09T12:15:34.374Z,4.23
2018-09-09T12:18:04.636Z,5.00
2018-09-09T12:20:34.454Z,3.10
2018-09-09T12:23:05.370Z,5.13
2018-09-09T12:25:36.034Z,4.27
2018-09-09T12:28:05.758Z,3.50
2018-09-09T12:30:36.667Z,3.90
2018-09-09T12:33:07.232Z,2.90
2018-09-09T12:35:36.849Z,5.13
2018-09-09T12:38:08.082Z,6.93
2018-09-09T12:40:37.950Z,4.97
2018-09-09T12:43:12.930Z,6.17
2018-09-09T12:46:45.859Z,4.47
2018-09-09T12:49:14.975Z,4.27
2018-09-09T12:51:45.021Z,3.70
2018-09-09T12:54:15.415Z,4.93
2018-09-09T12:56:46.642Z,5.40
2018-09-09T12:59:16.722Z,4.77
2018-09-09T13:01:46.198Z,5.73
2018-09-09T13:04:17.481Z,4.73
2018-09-09T13:06:48.083Z,4.43
2018-09-09T13:09:18.071Z,5.10
2018-09-09T13:11:48.230Z,4.70
2018-09-09T13:14:19.034Z,3.57
2018-09-09T13:16:49.478Z,5.87
2018-09-09T13:19:20.098Z,3.73
2018-09-09T13:21:50.254Z,8.83
2018-09-09T13:24:19.177Z,5.03
2018-09-09T13:26:47.685Z,4.93
2018-09-09T13:29:17.379Z,6.73
2018-09-09T13:31:47.436Z,6.80
2018-09-09T13:34:17.358Z,4.90
2018-09-09T13:36:48.215Z,4.07
2018-09-09T13:39:18.466Z,5.47
2018-09-09T13:41:48.018Z,5.97
2018-09-09T13:44:18.603Z,5.90
2018-09-09T13:46:49.887Z,3.43
2018-09-09T13:49:19.559Z,5.30
2018-09-09T13:51:49.854Z,2.80
2018-09-09T13:54:20.152Z,4.77
2018-09-09T13:56:50.833Z,3.80
2018-09-09T13:59:21.024Z,5.10
2018-09-09T14:01:50.975Z,5.07
2018-09-09T14:04:22.547Z,2.83
2018-09-09T14:06:52.707Z,3.80
2018-09-09T14:09:22.285Z,5.47
2018-09-09T14:11:52.105Z,4.40
2018-09-09T14:14:21.625Z,3.70
2018-09-09T14:16:52.502Z,4.90
2018-09-09T14:19:22.435Z,3.87
2018-09-09T14:21:53.012Z,3.47
2018-09-09T14:24:23.875Z,2.80
2018-09-09T14:26:53.847Z,4.90
2018-09-09T14:29:23.097Z,4.40
2018-09-09T14:31:53.909Z,4.73
2018-09-09T14:34:24.975Z,4.67
2018-09-09T14:36:54.296Z,6.30
2018-09-09T14:39:25.094Z,5.90
2018-09-09T14:41:55.095Z,6.10
2018-09-09T14:44:25.330Z,4.53
2018-09-09T14:46:56.019Z,3.90
2018-09-09T14:49:25.492Z,4.50
2018-09-09T14:51:57.166Z,3.67
2018-09-09T14:54:28.038Z,4.03
2018-09-09T14:56:57.142Z,4.00
2018-09-09T14:59:27.254Z,5.87
2018-09-09T15:01:56.862Z,3.50
2018-09-09T15:04:27.335Z,5.00
2018-09-09T15:06:56.261Z,4.20
2018-09-09T15:09:26.462Z,3.07
2018-09-09T15:11:58.060Z,3.63
2018-09-09T15:14:27.862Z,3.33
2018-09-09T15:16:58.146Z,4.37
2018-09-09T15:19:28.651Z,6.03
2018-09-09T15:21:57.810Z,5.53
2018-09-09T15:24:27.343Z,3.80
2018-09-09T15:26:57.294Z,3.30
2018-09-09T15:29:26.938Z,3.80
2018-09-09T15:31:58.223Z,4.90
2018-09-09T15:34:28.132Z,3.47
2018-09-09T15:36:57.870Z,5.97
2018-09-09T15:39:28.382Z,4.23
2018-09-09T15:41:58.303Z,5.30
2018-09-09T15:44:28.882Z,7.90
2018-09-09T15:46:58.210Z,5.33
2018-09-09T15:49:28.154Z,5.73
2018-09-09T15:51:58.169Z,6.43
2018-09-09T15:54:27.616Z,3.27
2018-09-09T15:56:57.567Z,4.67
2018-09-09T15:59:27.117Z,3.70
2018-09-09T16:01:56.822Z,10.63
2018-09-09T16:04:27.007Z,6.33
2018-09-09T16:06:56.963Z,3.30
2018-09-09T16:09:26.573Z,4.90
2018-09-09T16:11:56.977Z,2.83
2018-09-09T16:14:27.827Z,4.03
2018-09-09T16:16:58.559Z,4.17
2018-09-09T16:19:29.062Z,6.30
2018-09-09T16:22:00.523Z,3.57
2018-09-09T16:24:30.856Z,5.70
2018-09-09T16:27:00.562Z,6.83
2018-09-09T16:29:31.370Z,3.10
2018-09-09T16:32:01.300Z,2.73
2018-09-09T16:34:30.823Z,4.27
2018-09-09T16:37:00.962Z,4.87
2018-09-09T16:39:31.227Z,4.00
2018-09-09T16:42:01.915Z,3.20
2018-09-09T16:44:31.971Z,3.77
2018-09-09T16:47:03.317Z,10.47
2018-09-09T16:49:34.426Z,4.10
2018-09-09T16:52:04.091Z,2.67
2018-09-09T16:54:34.842Z,4.00
2018-09-09T16:57:04.467Z,3.33
2018-09-09T16:59:35.021Z,3.93
2018-09-09T17:02:05.922Z,4.43
2018-09-09T17:04:35.947Z,13.67
2018-09-09T17:07:06.122Z,3.97
2018-09-09T17:09:35.476Z,27.50
2018-09-09T17:12:07.141Z,6.57
2018-09-09T17:14:38.198Z,4.37
2018-09-09T17:17:08.801Z,4.83
2018-09-09T17:19:39.636Z,4.20
2018-09-09T17:22:09.871Z,6.17
2018-09-09T17:24:39.821Z,6.53
2018-09-09T17:27:09.913Z,5.70
2018-09-09T17:29:41.771Z,2.80
2018-09-09T17:32:11.248Z,3.63
2018-09-09T17:34:42.012Z,2.53
2018-09-09T17:37:11.222Z,6.80
2018-09-09T17:39:40.703Z,3.07
2018-09-09T17:42:10.734Z,6.30
2018-09-09T17:44:40.651Z,5.80
2018-09-09T17:47:10.339Z,13.67
2018-09-09T17:49:40.189Z,16.97
2018-09-09T17:52:09.786Z,15.50
2018-09-09T17:54:39.781Z,31.37
2018-09-09T17:57:10.083Z,60.70
2018-09-09T17:59:40.697Z,19.13
2018-09-09T18:02:11.435Z,42.03
2018-09-09T18:04:41.614Z,44.63
2018-09-09T18:07:11.966Z,8.67
2018-09-09T18:09:42.983Z,6.47
2018-09-09T18:12:13.353Z,5.47
2018-09-09T18:14:43.236Z,4.17
2018-09-09T18:17:12.330Z,4.03
2018-09-09T18:19:42.169Z,3.90
2018-09-09T18:22:12.455Z,4.93
2018-09-09T18:24:42.267Z,9.80
2018-09-09T18:27:12.535Z,4.73
2018-09-09T18:29:42.449Z,6.77
2018-09-09T18:32:12.617Z,3.67
2018-09-09T18:34:44.185Z,3.70
2018-09-09T18:37:14.900Z,4.00
2018-09-09T18:39:44.063Z,6.47
2018-09-09T18:42:13.521Z,5.83
2018-09-09T18:44:43.135Z,4.47
2018-09-09T18:47:12.662Z,5.57
2018-09-09T18:49:42.862Z,6.23
2018-09-09T18:52:13.264Z,4.73
2018-09-09T18:54:44.028Z,7.27
2018-09-09T18:57:13.725Z,4.87
2018-09-09T18:59:44.900Z,5.43
2018-09-09T19:02:15.096Z,5.30
2018-09-09T19:04:44.919Z,3.60
2018-09-09T19:07:15.790Z,7.60
2018-09-09T19:09:46.908Z,4.97
2018-09-09T19:12:16.962Z,7.00
2018-09-09T19:14:48.577Z,7.37
2018-09-09T19:17:19.138Z,6.37
2018-09-09T19:19:49.283Z,7.37
2018-09-09T19:22:19.283Z,13.33
2018-09-09T19:24:49.154Z,9.03
2018-09-09T19:27:19.219Z,6.70
2018-09-09T19:29:49.546Z,7.80
2018-09-09T19:32:19.444Z,8.60
2018-09-09T19:34:49.536Z,7.80
2018-09-09T19:37:19.628Z,8.77
2018-09-09T19:39:50.534Z,10.40
2018-09-09T19:42:20.826Z,11.03
2018-09-09T19:44:51.060Z,11.23
2018-09-09T19:47:22.286Z,9.00
2018-09-09T19:49:53.805Z,9.27
2018-09-09T19:52:23.771Z,7.13
2018-09-09T19:54:53.858Z,8.97
2018-09-09T19:57:23.838Z,4.77
2018-09-09T19:59:55.928Z,7.80
2018-09-09T20:02:25.900Z,7.40
2018-09-09T20:04:56.076Z,6.50
2018-09-09T20:07:26.638Z,8.20
2018-09-09T20:09:56.931Z,12.63
2018-09-09T20:12:26.767Z,11.23
2018-09-09T20:14:57.132Z,12.23
2018-09-09T20:17:28.159Z,17.93
2018-09-09T20:19:58.935Z,18.00
2018-09-09T20:22:29.333Z,13.60
2018-09-09T20:24:59.955Z,18.77
2018-09-09T20:27:29.992Z,11.53
2018-09-09T20:29:59.175Z,14.37
2018-09-09T20:32:29.668Z,11.80
2018-09-09T20:34:59.838Z,14.13
2018-09-09T20:37:30.015Z,12.27
2018-09-09T20:40:00.189Z,19.97
2018-09-09T20:42:32.299Z,19.60
2018-09-09T20:45:02.963Z,10.80
2018-09-09T20:47:33.014Z,7.33
2018-09-09T20:50:02.125Z,5.10
2018-09-09T20:52:32.618Z,6.57
2018-09-09T20:55:03.196Z,4.63
2018-09-09T20:57:32.366Z,5.77
2018-09-09T21:00:01.973Z,6.97
2018-09-09T21:02:34.076Z,8.50
2018-09-09T21:05:03.973Z,5.20
2018-09-09T21:07:33.122Z,7.77
2018-09-09T21:10:03.729Z,6.73
2018-09-09T21:12:33.827Z,9.73
2018-09-09T21:15:07.147Z,16.87
2018-09-09T21:17:37.277Z,18.10
2018-09-09T21:20:07.974Z,19.37
2018-09-09T21:22:38.026Z,17.50
2018-09-09T21:25:07.493Z,15.90
2018-09-09T21:27:38.111Z,5.83
2018-09-09T21:30:08.522Z,4.47
2018-09-09T21:32:38.059Z,4.70
2018-09-09T21:35:08.791Z,4.57
2018-09-09T21:37:38.750Z,6.13
2018-09-09T21:40:09.783Z,5.07
2018-09-09T21:42:40.578Z,4.77
2018-09-09T21:45:10.073Z,5.90
2018-09-09T21:47:39.166Z,4.50
2018-09-09T21:50:09.727Z,7.23
2018-09-09T21:52:38.882Z,9.20
2018-09-09T21:55:08.497Z,6.17
2018-09-09T21:57:39.086Z,10.00
2018-09-09T22:00:11.704Z,11.10
2018-09-09T22:02:42.638Z,8.80
2018-09-09T22:05:12.210Z,10.40
2018-09-09T22:07:42.825Z,9.83
2018-09-09T22:10:12.005Z,9.87
2018-09-09T22:12:41.832Z,6.93
2018-09-09T22:15:12.395Z,9.30
2018-09-09T22:17:43.014Z,8.33
2018-09-09T22:20:12.453Z,5.00
2018-09-09T22:22:43.018Z,5.37
2018-09-09T22:25:13.818Z,5.07
2018-09-09T22:27:43.015Z,4.93
2018-09-09T22:30:13.748Z,5.67
2018-09-09T22:32:43.959Z,4.33
2018-09-09T22:35:13.948Z,4.87
2018-09-09T22:37:43.723Z,6.17
2018-09-09T22:40:15.154Z,5.93
2018-09-09T22:42:46.795Z,5.00
2018-09-09T22:45:16.957Z,6.40
2018-09-09T22:47:47.005Z,5.30
2018-09-09T22:50:17.570Z,4.00
2018-09-09T22:52:47.734Z,4.83
2018-09-09T22:55:18.340Z,5.43
2018-09-09T22:57:48.882Z,3.83
2018-09-09T23:00:18.646Z,5.00
2018-09-09T23:02:47.959Z,4.77
2018-09-09T23:05:19.023Z,5.20
2018-09-09T23:07:50.056Z,5.47
2018-09-09T23:10:20.772Z,5.10
2018-09-09T23:12:50.983Z,5.67
2018-09-09T23:15:26.557Z,4.00
2018-09-09T23:17:57.627Z,7.13
2018-09-09T23:20:27.100Z,4.70
2018-09-09T23:22:57.426Z,6.80
2018-09-09T23:25:27.458Z,5.50
2018-09-09T23:27:58.398Z,4.90
2018-09-09T23:30:28.638Z,5.47
2018-09-09T23:32:58.813Z,5.23
2018-09-09T23:35:29.227Z,4.33
2018-09-09T23:38:00.010Z,5.50
2018-09-09T23:40:31.010Z,3.63
2018-09-09T23:43:02.503Z,5.87
2018-09-09T23:45:32.606Z,5.43
2018-09-09T23:48:02.258Z,5.10
2018-09-09T23:50:31.118Z,5.17
2018-09-09T23:53:01.315Z,8.00
2018-09-09T23:55:31.674Z,5.23
2018-09-09T23:58:00.926Z,6.23
